createdAt,value
2023-01-17T00:02:45.249Z,2.20
2023-01-17T00:08:05.182Z,1.50
2023-01-17T00:13:06.649Z,1.83
2023-01-17T00:18:08.073Z,2.13
2023-01-17T00:23:40.049Z,3.77
2023-01-17T00:28:42.637Z,2.03
2023-01-17T00:33:44.111Z,3.73
2023-01-17T00:38:45.541Z,4.07
2023-01-17T00:44:05.333Z,2.80
2023-01-17T00:49:25.805Z,3.43
2023-01-17T00:54:45.987Z,2.57
2023-01-17T01:00:06.103Z,5.17
2023-01-17T01:05:26.883Z,6.57
2023-01-17T01:10:47.062Z,6.27
2023-01-17T01:16:07.465Z,6.70
2023-01-17T01:21:27.608Z,6.90
2023-01-17T01:26:47.920Z,6.37
2023-01-17T01:32:07.755Z,2.33
2023-01-17T01:37:09.213Z,4.23
2023-01-17T01:42:15.733Z,4.03
2023-01-17T01:47:30.756Z,3.23
2023-01-17T01:52:35.524Z,3.20
2023-01-17T02:02:44.116Z,3.08
2023-01-17T02:08:02.272Z,5.05
2023-01-17T02:13:04.563Z,2.70
2023-01-17T02:18:08.973Z,4.37
2023-01-17T02:23:39.413Z,3.67
2023-01-17T02:29:11.633Z,4.17
2023-01-17T02:34:23.308Z,3.90
2023-01-17T02:39:32.761Z,8.83
2023-01-17T02:44:43.540Z,5.87
2023-01-17T02:49:45.024Z,5.00
2023-01-17T02:55:14.155Z,7.60
2023-01-17T03:00:25.089Z,4.73
2023-01-17T03:05:33.886Z,5.27
2023-01-17T03:10:36.304Z,3.70
2023-01-17T03:15:39.664Z,5.20
2023-01-17T03:20:41.805Z,4.33
2023-01-17T03:25:43.239Z,4.77
2023-01-17T03:30:44.700Z,6.93
2023-01-17T03:35:46.535Z,4.70
2023-01-17T03:40:48.065Z,6.23
2023-01-17T03:45:54.407Z,5.20
2023-01-17T03:50:55.970Z,5.33
2023-01-17T03:55:57.491Z,8.50
2023-01-17T04:00:59.044Z,7.03
2023-01-17T04:06:00.553Z,8.97
2023-01-17T04:11:02.056Z,7.33
2023-01-17T04:16:03.818Z,6.87
2023-01-17T04:21:05.510Z,6.60
2023-01-17T04:26:07.130Z,8.90
2023-01-17T04:31:15.657Z,8.83
2023-01-17T04:36:18.013Z,10.47
2023-01-17T04:41:19.525Z,9.43
2023-01-17T04:46:21.078Z,11.93
2023-01-17T04:51:22.573Z,11.70
2023-01-17T04:56:24.165Z,13.17
2023-01-17T05:01:25.882Z,14.87
2023-01-17T05:06:27.435Z,12.87
2023-01-17T05:11:28.931Z,13.50
2023-01-17T05:16:30.391Z,15.53
2023-01-17T05:21:32.240Z,17.33
2023-01-17T05:26:33.710Z,18.23
2023-01-17T05:31:35.498Z,19.27
2023-01-17T05:36:36.926Z,21.00
2023-01-17T05:41:38.368Z,18.63
2023-01-17T05:46:39.848Z,20.90
2023-01-17T05:51:41.353Z,20.07
2023-01-17T05:56:42.842Z,18.50
2023-01-17T06:01:44.308Z,17.10
2023-01-17T06:06:45.882Z,13.37
2023-01-17T06:11:47.362Z,6.90
2023-01-17T06:16:48.891Z,3.63
2023-01-17T06:21:50.334Z,1.00
2023-01-17T06:26:51.763Z,1.53
2023-01-17T06:31:53.269Z,1.93
2023-01-17T06:36:54.809Z,2.27
2023-01-17T06:41:56.559Z,1.43
2023-01-17T06:46:58.018Z,3.37
2023-01-17T06:51:59.787Z,0.50
2023-01-17T06:57:01.244Z,1.23
2023-01-17T07:02:02.781Z,1.47
2023-01-17T07:07:04.227Z,2.97
2023-01-17T07:12:05.897Z,1.50
2023-01-17T07:17:07.359Z,2.20
2023-01-17T07:22:10.652Z,1.20
2023-01-17T07:27:12.154Z,2.90
2023-01-17T07:32:13.682Z,1.03
2023-01-17T07:37:15.513Z,7.53
2023-01-17T07:42:17.075Z,6.60
2023-01-17T07:47:18.655Z,0.97
2023-01-17T07:52:20.086Z,5.20
2023-01-17T07:57:21.707Z,4.00
2023-01-17T08:02:23.647Z,4.73
2023-01-17T08:07:25.125Z,5.20
2023-01-17T08:12:26.980Z,3.60
2023-01-17T08:17:28.459Z,6.63
2023-01-17T08:22:30.658Z,6.30
2023-01-17T08:27:32.258Z,7.77
2023-01-17T08:32:34.581Z,12.60
2023-01-17T08:37:37.775Z,6.90
2023-01-17T08:42:40.910Z,6.67
2023-01-17T08:47:42.347Z,13.37
2023-01-17T08:52:43.820Z,12.50
2023-01-17T08:57:45.288Z,13.63
2023-01-17T09:02:46.773Z,6.23
2023-01-17T09:07:48.182Z,5.13
2023-01-17T09:12:50.069Z,7.37
2023-01-17T09:17:55.485Z,1.10
2023-01-17T09:22:57.494Z,6.30
2023-01-17T09:27:58.978Z,4.50
2023-01-17T09:33:00.386Z,5.87
2023-01-17T09:38:01.796Z,5.47
2023-01-17T09:43:07.799Z,2.13
2023-01-17T09:48:17.764Z,3.37
2023-01-17T09:53:23.411Z,8.43
2023-01-17T09:58:43.484Z,5.10
2023-01-17T10:04:15.395Z,7.57
2023-01-17T10:09:45.727Z,5.33
2023-01-17T10:15:11.679Z,5.63
2023-01-17T10:20:50.303Z,5.72
2023-01-17T10:25:55.379Z,2.55
2023-01-17T10:31:06.187Z,7.38
2023-01-17T10:36:15.261Z,3.45
2023-01-17T10:41:22.147Z,5.10
2023-01-17T10:46:32.629Z,7.47
2023-01-17T10:51:59.777Z,2.53
2023-01-17T10:57:01.432Z,3.63
2023-01-17T11:02:09.851Z,5.22
2023-01-17T11:07:18.838Z,4.25
2023-01-17T11:12:37.898Z,3.10
2023-01-17T11:17:49.853Z,3.90
2023-01-17T11:23:12.585Z,5.22
2023-01-17T11:28:26.030Z,3.88
2023-01-17T11:33:45.358Z,4.15
2023-01-17T11:39:05.083Z,2.58
2023-01-17T11:44:27.951Z,9.32
2023-01-17T11:49:29.443Z,6.20
2023-01-17T11:54:39.530Z,2.30
2023-01-17T11:59:43.220Z,3.25
2023-01-17T12:05:11.139Z,5.00
2023-01-17T12:10:27.825Z,10.40
2023-01-17T12:16:30.136Z,2.55
2023-01-17T12:21:49.781Z,3.72
2023-01-17T12:27:06.249Z,8.45
2023-01-17T12:32:13.344Z,1.83
2023-01-17T12:37:34.350Z,1.98
2023-01-17T12:42:40.681Z,1.83
2023-01-17T12:47:48.873Z,2.67
2023-01-17T12:53:09.862Z,3.73
2023-01-17T12:58:19.355Z,1.03
2023-01-17T13:04:03.124Z,1.17
2023-01-17T13:09:05.677Z,2.30
2023-01-17T13:14:10.013Z,4.72
2023-01-17T13:19:21.528Z,3.53
2023-01-17T13:24:32.707Z,1.38
2023-01-17T13:29:48.921Z,1.98
2023-01-17T13:35:27.652Z,0.93
2023-01-17T13:40:37.036Z,2.50
2023-01-17T13:45:39.400Z,0.90
2023-01-17T13:50:40.859Z,6.10
2023-01-17T13:55:50.512Z,3.90
2023-01-17T14:00:52.223Z,2.60
2023-01-17T14:05:57.010Z,4.33
2023-01-17T14:16:22.114Z,2.47
2023-01-17T14:21:27.063Z,1.03
2023-01-17T14:26:54.466Z,3.87
2023-01-17T14:32:05.417Z,5.63
2023-01-17T14:37:17.635Z,4.40
2023-01-17T14:42:23.568Z,3.27
2023-01-17T14:47:28.274Z,5.57
2023-01-17T14:57:31.166Z,3.03
2023-01-17T15:02:32.936Z,2.50
2023-01-17T15:07:36.970Z,4.60
2023-01-17T15:12:38.789Z,6.40
2023-01-17T15:17:40.296Z,4.37
2023-01-17T15:22:42.004Z,10.50
2023-01-17T15:27:43.632Z,2.70
2023-01-17T15:32:49.160Z,8.70
2023-01-17T15:37:54.818Z,5.60
2023-01-17T15:43:01.029Z,5.30
2023-01-17T15:48:41.392Z,5.43
2023-01-17T15:53:43.136Z,1.33
2023-01-17T15:58:44.955Z,4.87
2023-01-17T16:03:54.776Z,3.93
2023-01-17T16:08:56.290Z,3.37
2023-01-17T16:13:57.812Z,4.73
2023-01-17T16:19:01.877Z,3.70
2023-01-17T16:24:03.555Z,4.53
2023-01-17T16:29:05.053Z,2.40
2023-01-17T16:34:14.167Z,2.50
2023-01-17T16:39:15.693Z,1.97
2023-01-17T16:44:17.184Z,3.83
2023-01-17T16:49:18.939Z,3.53
2023-01-17T16:54:20.502Z,6.07
2023-01-17T16:59:22.067Z,4.07
2023-01-17T17:04:23.571Z,7.80
2023-01-17T17:09:25.095Z,9.17
2023-01-17T17:14:26.874Z,7.07
2023-01-17T17:19:28.361Z,15.90
2023-01-17T17:24:29.897Z,11.93
2023-01-17T17:29:31.377Z,10.50
2023-01-17T17:34:34.919Z,9.40
2023-01-17T17:39:36.580Z,6.43
2023-01-17T17:44:38.021Z,6.43
2023-01-17T17:49:39.877Z,8.80
2023-01-17T17:54:41.293Z,9.03
2023-01-17T17:59:42.773Z,10.70
2023-01-17T18:04:44.270Z,14.60
2023-01-17T18:09:46.867Z,8.90
2023-01-17T18:14:48.309Z,6.17
2023-01-17T18:19:49.884Z,9.10
2023-01-17T18:24:51.413Z,7.97
2023-01-17T18:30:05.856Z,3.00
2023-01-17T18:40:09.802Z,6.30
2023-01-17T18:45:11.394Z,4.43
2023-01-17T18:50:12.922Z,5.80
2023-01-17T18:55:14.597Z,8.10
2023-01-17T19:00:16.401Z,5.87
2023-01-17T19:05:21.431Z,6.53
2023-01-17T19:10:22.842Z,10.33
2023-01-17T19:15:24.311Z,9.07
2023-01-17T19:20:25.755Z,12.37
2023-01-17T19:25:27.786Z,7.37
2023-01-17T19:30:29.557Z,4.63
2023-01-17T19:35:30.989Z,16.83
2023-01-17T19:40:32.566Z,10.60
2023-01-17T19:45:34.058Z,9.47
2023-01-17T19:50:35.550Z,6.77
2023-01-17T19:55:39.363Z,3.57
2023-01-17T20:00:46.537Z,8.10
2023-01-17T20:05:56.097Z,7.50
2023-01-17T20:11:13.405Z,8.47
2023-01-17T20:16:17.046Z,4.70
2023-01-17T20:21:21.051Z,6.57
2023-01-17T20:26:25.320Z,8.55
2023-01-17T20:31:28.529Z,8.13
2023-01-17T20:36:30.209Z,6.77
2023-01-17T20:41:34.836Z,7.00
2023-01-17T20:51:44.316Z,7.07
2023-01-17T20:56:47.523Z,7.10
2023-01-17T21:01:49.770Z,4.07
2023-01-17T21:06:53.108Z,3.33
2023-01-17T21:12:00.805Z,6.27
2023-01-17T21:17:02.264Z,13.00
2023-01-17T21:22:05.539Z,9.80
2023-01-17T21:27:07.073Z,3.30
2023-01-17T21:32:08.634Z,5.20
2023-01-17T21:37:10.135Z,7.57
2023-01-17T21:42:11.644Z,9.33
2023-01-17T21:47:13.074Z,6.97
2023-01-17T21:52:17.400Z,6.23
2023-01-17T21:57:39.405Z,4.60
2023-01-17T22:02:41.259Z,7.40
2023-01-17T22:08:02.843Z,6.20
2023-01-17T22:13:04.246Z,9.47
2023-01-17T22:18:06.210Z,7.67
2023-01-17T22:23:11.783Z,7.03
2023-01-17T22:28:13.675Z,3.97
2023-01-17T22:33:15.097Z,9.20
2023-01-17T22:38:16.550Z,8.30
2023-01-17T22:43:18.034Z,8.63
2023-01-17T22:48:19.489Z,5.17
2023-01-17T22:53:20.961Z,12.93
2023-01-17T22:58:23.018Z,8.27
2023-01-17T23:03:24.671Z,10.93
2023-01-17T23:08:26.196Z,16.17
2023-01-17T23:13:27.707Z,6.00
2023-01-17T23:18:47.406Z,5.03
2023-01-17T23:23:48.895Z,8.20
2023-01-17T23:28:50.360Z,6.27
2023-01-17T23:33:51.770Z,10.63
2023-01-17T23:38:53.217Z,9.77
2023-01-17T23:43:56.724Z,5.77
2023-01-17T23:48:58.258Z,4.87
2023-01-17T23:54:05.457Z,5.93
2023-01-17T23:59:07.160Z,8.03
